Time;durP1;ratioP1;P1;durP2;ratioP2;P2;SDS_P1;SDS_P2;PMS_P1;PMS_P2;Temp;Humidity;BMP_temperature;BMP_pressure;BME280_temperature;BME280_humidity;BME280_pressure;Samples;Min_cycle;Max_cycle;Signal;HPM_P1;HPM_P2
2022/08/17 00:02:18;;;;;;;27.42;25.20;;;16.30;99.90;;;;;;5072917;28;20040;-69
2022/08/17 00:04:53;;;;;;;26.83;24.83;;;16.20;99.90;;;;;;5070361;28;20143;-69
2022/08/17 00:07:20;;;;;;;27.17;25.05;;;16.30;99.90;;;;;;5069887;28;20044;-69
2022/08/17 00:09:47;;;;;;;27.63;25.50;;;16.40;99.90;;;;;;5092909;28;20116;-68
2022/08/17 00:12:14;;;;;;;27.95;25.75;;;16.30;99.90;;;;;;5090231;28;20044;-69
2022/08/17 00:15:01;;;;;;;27.27;25.08;;;16.30;99.90;;;;;;5090179;28;20047;-70
2022/08/17 00:17:27;;;;;;;26.55;24.50;;;16.10;99.90;;;;;;5086600;28;20086;-69
2022/08/17 00:19:54;;;;;;;28.05;25.85;;;16.10;99.90;;;;;;5087686;28;20085;-69
2022/08/17 00:22:21;;;;;;;29.05;26.65;;;16.10;99.90;;;;;;5086587;28;20040;-69
2022/08/17 00:25:06;;;;;;;28.83;26.45;;;16.10;99.90;;;;;;5084855;28;20044;-68
2022/08/17 00:27:32;;;;;;;28.50;26.33;;;16.00;99.90;;;;;;5089026;28;20119;-69
2022/08/17 00:29:59;;;;;;;26.60;24.70;;;15.90;99.90;;;;;;5092344;28;20040;-69
2022/08/17 00:32:26;;;;;;;27.27;25.08;;;15.90;99.90;;;;;;5086183;28;20497;-69
2022/08/17 00:35:16;;;;;;;27.55;25.27;;;16.00;99.90;;;;;;5073525;28;20543;-70
2022/08/17 00:37:43;;;;;;;27.73;25.63;;;15.80;99.90;;;;;;5068743;28;20047;-70
2022/08/17 00:40:12;;;;;;;26.85;24.88;;;15.90;99.90;;;;;;5085379;28;20571;-68
2022/08/17 00:42:40;;;;;;;26.52;24.63;;;15.90;99.90;;;;;;5088724;28;20354;-69
2022/08/17 00:45:09;;;;;;;26.92;24.85;;;15.80;99.90;;;;;;5085161;28;20240;-70
2022/08/17 00:47:36;;;;;;;27.13;25.08;;;15.70;99.90;;;;;;5066404;28;20878;-70
2022/08/17 00:50:08;;;;;;;27.30;25.30;;;15.70;99.90;;;;;;5071448;28;20420;-68
2022/08/17 00:52:41;;;;;;;26.30;24.13;;;15.80;99.90;;;;;;5090106;28;20981;-69
2022/08/17 00:55:09;;;;;;;26.70;24.55;;;15.80;99.90;;;;;;5090597;28;20092;-69
2022/08/17 00:57:41;;;;;;;25.60;23.80;;;15.70;99.90;;;;;;5068940;28;20440;-70
2022/08/17 01:00:36;;;;;;;27.45;25.13;;;15.70;99.90;;;;;;5075389;28;20576;-69
2022/08/17 01:03:14;;;;;;;27.55;25.27;;;15.70;99.90;;;;;;5071537;28;20048;-69
2022/08/17 01:05:41;;;;;;;27.17;24.90;;;15.80;99.90;;;;;;5068703;28;20437;-69
2022/08/17 01:08:14;;;;;;;26.15;23.98;;;15.80;99.90;;;;;;5088406;28;20119;-68
2022/08/17 01:10:45;;;;;;;26.88;24.73;;;15.80;99.90;;;;;;5065649;28;20127;-68
2022/08/17 01:13:35;;;;;;;27.10;24.90;;;15.70;99.90;;;;;;5086846;28;20370;-68
2022/08/17 01:16:27;;;;;;;27.30;25.20;;;15.80;99.90;;;;;;5096234;28;20193;-68
2022/08/17 01:18:58;;;;;;;27.35;24.83;;;15.80;99.90;;;;;;5057348;28;20220;-69
2022/08/17 01:21:51;;;;;;;25.20;23.38;;;15.80;99.90;;;;;;5080738;28;20104;-69
2022/08/17 01:24:18;;;;;;;25.73;23.58;;;15.80;99.90;;;;;;5092415;28;20382;-69
2022/08/17 01:26:44;;;;;;;26.42;24.35;;;15.70;99.90;;;;;;5092418;28;20149;-69
2022/08/17 01:29:12;;;;;;;26.25;24.20;;;15.60;99.90;;;;;;5084001;28;20231;-69
2022/08/17 01:31:54;;;;;;;26.83;24.73;;;15.40;99.90;;;;;;5063709;28;20120;-69
2022/08/17 01:34:22;;;;;;;27.20;25.02;;;15.60;99.90;;;;;;5088259;27;20136;-69
2022/08/17 01:37:00;;;;;;;27.48;25.00;;;15.70;99.90;;;;;;5094527;28;20117;-68
2022/08/17 01:39:34;;;;;;;26.70;24.50;;;15.80;99.90;;;;;;5083940;28;20131;-69
2022/08/17 01:42:12;;;;;;;25.42;23.33;;;15.70;99.90;;;;;;5097082;28;20085;-69
2022/08/17 01:44:40;;;;;;;26.33;23.98;;;15.70;99.90;;;;;;5089579;28;20036;-70
2022/08/17 01:47:06;;;;;;;25.17;23.17;;;15.70;99.90;;;;;;5076141;28;20032;-70
2022/08/17 01:49:33;;;;;;;25.40;23.50;;;15.70;99.90;;;;;;5084046;28;20375;-69
2022/08/17 01:52:07;;;;;;;25.63;23.42;;;15.60;99.90;;;;;;5085565;28;20142;-69
2022/08/17 01:54:35;;;;;;;27.15;25.00;;;15.60;99.90;;;;;;5088646;28;20431;-69
2022/08/17 01:57:01;;;;;;;28.45;26.13;;;15.50;99.90;;;;;;5082796;28;20441;-69
2022/08/17 01:59:28;;;;;;;27.65;25.55;;;15.40;99.90;;;;;;5082443;28;20528;-69
2022/08/17 02:01:55;;;;;;;28.15;25.98;;;15.40;99.90;;;;;;5095555;28;20074;-69
2022/08/17 02:04:22;;;;;;;28.20;25.80;;;15.40;99.90;;;;;;5066297;28;20113;-69
2022/08/17 02:06:49;;;;;;;29.00;26.23;;;15.50;99.90;;;;;;5096333;28;20040;-68
2022/08/17 02:09:25;;;;;;;27.75;25.33;;;15.60;99.90;;;;;;5089024;28;20104;-69
2022/08/17 02:11:57;;;;;;;27.20;25.10;;;15.40;99.90;;;;;;5079877;28;20516;-69
2022/08/17 02:14:24;;;;;;;26.92;24.77;;;15.40;99.90;;;;;;5092204;28;20084;-69
2022/08/17 02:16:52;;;;;;;26.08;23.98;;;15.50;99.90;;;;;;5071786;28;20036;-69
2022/08/17 02:19:20;;;;;;;27.25;24.98;;;15.50;99.90;;;;;;5071330;28;20521;-69
2022/08/17 02:21:50;;;;;;;27.00;24.75;;;15.50;99.90;;;;;;5072965;28;20529;-69
2022/08/17 02:24:31;;;;;;;27.25;25.15;;;15.50;99.90;;;;;;5073609;28;20075;-68
2022/08/17 02:27:18;;;;;;;26.83;24.73;;;15.50;99.90;;;;;;5075534;28;20126;-68
2022/08/17 02:29:45;;;;;;;26.83;24.65;;;15.50;99.90;;;;;;5094309;27;20039;-69
2022/08/17 02:32:24;;;;;;;27.42;25.23;;;15.50;99.90;;;;;;5079509;28;20416;-71
2022/08/17 02:34:55;;;;;;;27.30;24.98;;;15.40;99.90;;;;;;5089528;28;20059;-70
2022/08/17 02:37:22;;;;;;;26.27;24.13;;;15.40;99.90;;;;;;5056742;28;20048;-70
2022/08/17 02:39:49;;;;;;;25.63;23.52;;;15.50;99.90;;;;;;5069078;28;20031;-71
2022/08/17 02:42:16;;;;;;;26.50;24.42;;;15.60;99.90;;;;;;5088869;28;20039;-70
2022/08/17 02:44:44;;;;;;;26.27;24.35;;;15.60;99.90;;;;;;5052537;22;20048;31
2022/08/17 02:47:11;;;;;;;26.67;24.58;;;15.50;99.90;;;;;;5024384;28;20148;-79
2022/08/17 02:49:38;;;;;;;26.65;24.65;;;15.50;99.90;;;;;;5026710;28;20132;-79
2022/08/17 02:52:06;;;;;;;27.17;24.98;;;15.50;99.90;;;;;;5028471;28;20963;-79
2022/08/17 02:54:34;;;;;;;28.13;25.92;;;15.30;99.90;;;;;;5008252;28;20038;-77
2022/08/17 02:57:09;;;;;;;28.23;25.92;;;15.30;99.90;;;;;;5031434;28;20052;-77
2022/08/17 02:59:37;;;;;;;28.67;26.50;;;15.30;99.90;;;;;;5013960;28;20494;-77
2022/08/17 03:02:06;;;;;;;27.63;25.42;;;15.30;99.90;;;;;;5020943;28;20045;-77
2022/08/17 03:04:33;;;;;;;27.83;25.60;;;15.20;99.90;;;;;;5022870;28;20053;-77
2022/08/17 03:07:02;;;;;;;28.55;26.23;;;15.20;99.90;;;;;;5029403;28;20056;-79
2022/08/17 03:09:29;;;;;;;27.42;25.23;;;15.30;99.90;;;;;;5042122;28;20125;-77
2022/08/17 03:12:08;;;;;;;28.73;26.17;;;15.40;99.90;;;;;;5021107;28;20046;-77
2022/08/17 03:14:44;;;;;;;28.08;25.75;;;15.40;99.90;;;;;;5033997;28;20059;-77
2022/08/17 03:17:11;;;;;;;26.63;24.25;;;15.40;99.90;;;;;;5029806;28;20045;-78
2022/08/17 03:40:35;;;;;;;25.67;23.48;;;15.20;99.90;;;;;;5036689;28;20032;-78
2022/08/17 03:43:22;;;;;;;25.83;23.50;;;15.30;99.90;;;;;;5011982;28;20103;-77
2022/08/17 03:57:12;;;;;;;28.08;25.42;;;15.00;99.90;;;;;;5029307;28;20406;-77
2022/08/17 03:59:39;;;;;;;27.45;25.30;;;15.00;99.90;;;;;;5028035;28;20649;-78
2022/08/17 04:02:23;;;;;;;28.08;25.83;;;15.10;99.90;;;;;;5005687;28;20558;-78
2022/08/17 04:04:51;;;;;;;27.77;25.38;;;15.20;99.90;;;;;;5007054;28;20044;-78
2022/08/17 04:07:19;;;;;;;26.52;24.33;;;15.00;99.90;;;;;;5020376;28;20061;-77
2022/08/17 04:09:46;;;;;;;26.77;24.38;;;15.00;99.90;;;;;;5025107;28;20049;-77
2022/08/17 04:12:15;;;;;;;27.17;24.88;;;14.90;99.90;;;;;;5025365;28;20049;-77
2022/08/17 04:14:42;;;;;;;27.17;24.88;;;15.00;99.90;;;;;;5046739;28;20883;-77
2022/08/17 04:17:25;;;;;;;27.40;24.88;;;15.00;99.90;;;;;;5035469;28;20115;-77
2022/08/17 04:19:53;;;;;;;26.60;24.50;;;15.00;99.90;;;;;;5023726;28;20578;-78
2022/08/17 04:22:22;;;;;;;28.75;26.40;;;15.00;99.90;;;;;;5024598;28;20049;-76
2022/08/17 04:25:06;;;;;;;28.88;26.58;;;15.00;99.90;;;;;;5024299;28;20082;-77
2022/08/17 04:27:33;;;;;;;28.13;25.73;;;14.90;99.90;;;;;;4991358;28;20491;-78
2022/08/17 04:30:00;;;;;;;26.88;24.42;;;15.00;99.90;;;;;;5010783;28;20049;-77
2022/08/17 04:32:27;;;;;;;28.27;26.00;;;15.10;99.90;;;;;;5017807;28;20558;-77
2022/08/17 04:35:24;;;;;;;28.33;25.92;;;15.20;99.90;;;;;;5008567;28;20045;-77
2022/08/17 04:37:51;;;;;;;27.70;25.40;;;15.30;99.90;;;;;;5016547;28;20113;-77
2022/08/17 04:43:15;;;;;;;27.27;25.17;;;15.50;99.90;;;;;;5035602;28;20079;-78
2022/08/17 04:45:53;;;;;;;27.60;25.40;;;15.40;99.90;;;;;;5017465;28;20048;-78
2022/08/17 04:48:25;;;;;;;28.48;26.08;;;15.40;99.90;;;;;;4992592;28;20091;-79
2022/08/17 04:51:04;;;;;;;28.83;26.13;;;15.50;99.90;;;;;;5009662;28;20046;-78
2022/08/17 04:53:31;;;;;;;28.23;25.92;;;15.60;99.90;;;;;;4987794;28;20046;-76
2022/08/17 04:55:58;;;;;;;28.65;26.15;;;15.70;99.90;;;;;;4987436;28;20073;-76
2022/08/17 04:58:24;;;;;;;26.88;24.60;;;15.70;99.90;;;;;;4986811;28;20046;-76
2022/08/17 05:00:51;;;;;;;27.73;25.52;;;15.80;99.90;;;;;;5002069;28;20034;-76
2022/08/17 05:03:18;;;;;;;26.92;24.80;;;15.80;99.90;;;;;;5016766;28;20569;-76
2022/08/17 05:05:48;;;;;;;28.23;25.80;;;16.00;99.90;;;;;;4992686;28;20057;-76
2022/08/17 05:08:18;;;;;;;29.13;26.20;;;16.20;99.90;;;;;;5003289;28;20053;-76
2022/08/17 05:10:48;;;;;;;25.77;23.77;;;16.20;99.90;;;;;;4967660;28;20117;-76
2022/08/17 05:13:18;;;;;;;27.20;24.63;;;16.30;99.90;;;;;;4997887;28;20103;-75
2022/08/17 05:15:47;;;;;;;26.88;24.70;;;16.30;99.90;;;;;;5017917;23;20055;-73
2022/08/17 05:18:16;;;;;;;25.98;23.80;;;16.40;99.90;;;;;;5016813;28;20049;-74
2022/08/17 05:20:43;;;;;;;27.67;25.33;;;16.50;99.90;;;;;;5021563;28;20443;-74
2022/08/17 05:23:14;;;;;;;30.90;28.05;;;16.50;99.90;;;;;;5032488;28;20045;-74
2022/08/17 05:25:47;;;;;;;27.80;25.70;;;16.70;99.90;;;;;;5021007;28;20405;-74
2022/08/17 05:28:18;;;;;;;27.73;25.48;;;16.80;99.90;;;;;;5031452;28;20041;-73
2022/08/17 05:30:53;;;;;;;29.85;27.23;;;16.90;99.90;;;;;;5027760;28;20755;-74
2022/08/17 05:33:29;;;;;;;29.70;27.15;;;16.90;99.90;;;;;;5040658;28;20052;-74
2022/08/17 05:35:58;;;;;;;29.73;27.27;;;17.10;99.90;;;;;;5040721;28;20048;-74
2022/08/17 05:38:28;;;;;;;30.70;28.30;;;17.20;99.90;;;;;;5036267;28;20036;-74
2022/08/17 05:40:55;;;;;;;28.92;26.35;;;17.30;99.90;;;;;;5044777;28;20777;-74
2022/08/17 05:43:29;;;;;;;30.15;27.27;;;17.40;99.90;;;;;;5027951;28;21006;-74
2022/08/17 05:46:07;;;;;;;30.33;27.98;;;17.50;99.90;;;;;;5047892;28;20056;-74
2022/08/17 05:48:57;;;;;;;29.42;26.75;;;17.60;99.90;;;;;;5035796;28;20041;-74
2022/08/17 05:51:54;;;;;;;30.98;28.27;;;17.70;99.90;;;;;;5042930;28;20598;-74
2022/08/17 05:54:33;;;;;;;30.48;27.80;;;17.90;99.90;;;;;;5036921;28;20072;-75
2022/08/17 05:57:18;;;;;;;29.70;27.02;;;18.10;99.90;;;;;;5048555;28;20040;-74
2022/08/17 06:00:27;;;;;;;29.92;27.08;;;18.30;99.90;;;;;;5032414;28;20040;-74
2022/08/17 06:03:25;;;;;;;30.33;27.92;;;18.40;99.90;;;;;;5004598;28;20049;-75
2022/08/17 06:06:04;;;;;;;29.10;26.58;;;18.60;99.90;;;;;;5042110;28;20137;-74
2022/08/17 06:08:52;;;;;;;27.65;25.20;;;18.60;99.90;;;;;;5026451;28;20043;-74
2022/08/17 06:11:37;;;;;;;28.10;25.67;;;18.90;99.90;;;;;;5041377;28;20044;-75
2022/08/17 06:14:21;;;;;;;27.63;25.38;;;19.10;99.90;;;;;;5029414;28;20052;-75
2022/08/17 06:16:57;;;;;;;28.83;25.92;;;19.30;99.90;;;;;;5041363;28;20323;-75
2022/08/17 06:19:32;;;;;;;28.33;26.08;;;19.50;99.90;;;;;;5032169;28;21040;-75
2022/08/17 06:22:01;;;;;;;28.25;25.98;;;19.70;99.90;;;;;;5048045;28;20048;-75
2022/08/17 06:24:42;;;;;;;26.80;24.80;;;19.90;99.90;;;;;;5036515;28;20091;-74
2022/08/17 06:27:30;;;;;;;28.45;26.17;;;20.10;99.90;;;;;;5033278;28;20689;-75
2022/08/17 06:30:05;;;;;;;27.58;25.60;;;20.30;99.90;;;;;;5050598;28;20063;-74
2022/08/17 06:32:37;;;;;;;30.02;27.70;;;20.40;99.90;;;;;;5030595;28;20040;-75
2022/08/17 06:35:07;;;;;;;28.45;26.40;;;20.70;99.90;;;;;;5045019;28;20041;-74
2022/08/17 06:38:19;;;;;;;29.63;27.45;;;20.90;99.90;;;;;;5054428;28;20114;-75
2022/08/17 06:41:13;;;;;;;29.40;27.33;;;21.40;99.90;;;;;;5044515;28;20055;-75
2022/08/17 06:44:06;;;;;;;29.27;27.23;;;21.90;99.90;;;;;;5026669;28;20939;-75
2022/08/17 06:46:37;;;;;;;29.33;27.05;;;22.20;99.90;;;;;;5042244;28;20045;-75
2022/08/17 06:49:50;;;;;;;28.33;26.33;;;22.40;99.90;;;;;;5034829;28;20057;-75
2022/08/17 06:52:23;;;;;;;29.27;26.95;;;22.70;99.90;;;;;;5039929;28;20045;-73
2022/08/17 06:55:20;;;;;;;30.55;27.85;;;22.70;99.90;;;;;;5041047;28;20109;-73
2022/08/17 06:57:53;;;;;;;29.25;27.02;;;22.60;99.90;;;;;;5040429;28;20609;-73
2022/08/17 07:00:25;;;;;;;28.98;26.83;;;22.80;99.90;;;;;;5039530;28;20159;-73
2022/08/17 07:03:07;;;;;;;29.15;27.00;;;23.00;99.90;;;;;;5019658;28;20129;-75
2022/08/17 07:05:41;;;;;;;28.67;26.27;;;23.30;99.90;;;;;;5023173;28;20045;-73
2022/08/17 07:08:17;;;;;;;28.27;26.17;;;23.50;99.90;;;;;;5022531;28;20197;-73
2022/08/17 07:10:54;;;;;;;27.30;25.50;;;23.80;99.90;;;;;;5021528;28;20049;-73
2022/08/17 07:13:43;;;;;;;28.00;26.08;;;24.30;99.90;;;;;;5016838;28;20421;-72
2022/08/17 07:16:23;;;;;;;26.45;24.73;;;24.80;99.90;;;;;;5019360;28;20049;-72
2022/08/17 07:18:52;;;;;;;26.85;25.15;;;25.00;99.90;;;;;;5029159;28;20086;-72
2022/08/17 07:21:47;;;;;;;27.05;25.23;;;25.20;99.90;;;;;;5019991;28;20052;-73
2022/08/17 07:24:27;;;;;;;27.70;25.80;;;25.40;99.90;;;;;;5020358;28;20464;-73
2022/08/17 07:27:06;;;;;;;27.95;26.00;;;25.60;99.90;;;;;;5003003;28;20446;-72
2022/08/17 07:29:42;;;;;;;27.38;25.60;;;25.60;99.90;;;;;;5023397;28;20041;-73
2022/08/17 07:32:13;;;;;;;27.45;25.63;;;25.50;99.90;;;;;;5015575;28;20041;-72
2022/08/17 07:35:03;;;;;;;27.90;26.00;;;25.50;99.90;;;;;;5031908;28;20432;-72
2022/08/17 07:37:32;;;;;;;29.50;27.50;;;25.50;99.90;;;;;;5013668;28;20047;-72
2022/08/17 07:40:13;;;;;;;29.42;27.33;;;25.60;99.90;;;;;;5035415;28;20036;-70
2022/08/17 07:43:04;;;;;;;29.52;27.52;;;25.70;99.90;;;;;;5018980;28;21244;-72
2022/08/17 07:48:24;;;;;;;29.15;27.35;;;25.80;99.90;;;;;;5033248;28;20167;-73
2022/08/17 07:50:54;;;;;;;30.50;28.60;;;25.60;99.90;;;;;;5018171;28;20436;-72
2022/08/17 07:53:23;;;;;;;29.77;27.50;;;25.60;99.90;;;;;;5013406;28;20375;-73
2022/08/17 07:55:52;;;;;;;29.02;27.13;;;25.80;99.90;;;;;;5019325;28;20468;-73
2022/08/17 07:58:22;;;;;;;29.20;27.15;;;26.30;99.90;;;;;;5036444;28;20556;-75
2022/08/17 08:01:08;;;;;;;31.02;29.02;;;26.70;99.90;;;;;;5012402;28;20102;-74
2022/08/17 08:03:41;;;;;;;28.95;26.95;;;27.00;99.90;;;;;;5025446;28;20047;-75
2022/08/17 08:06:23;;;;;;;29.25;27.50;;;27.30;99.90;;;;;;5020373;28;20049;-76
2022/08/17 08:08:59;;;;;;;29.10;26.83;;;27.30;99.90;;;;;;5028253;28;20041;-74
2022/08/17 08:11:35;;;;;;;30.35;28.20;;;26.90;99.90;;;;;;5012421;28;20101;-73
2022/08/17 08:14:32;;;;;;;30.40;28.50;;;26.80;99.90;;;;;;5019003;28;20049;-72
2022/08/17 08:17:03;;;;;;;30.13;28.25;;;26.90;99.90;;;;;;5018735;28;20041;-73
2022/08/17 08:19:35;;;;;;;31.27;29.17;;;27.10;99.90;;;;;;5036638;28;20052;-74
2022/08/17 08:22:10;;;;;;;29.67;27.90;;;26.90;99.90;;;;;;5036882;28;20045;-74
2022/08/17 08:24:40;;;;;;;30.45;28.65;;;27.00;99.90;;;;;;5033156;28;20056;-74
2022/08/17 08:27:35;;;;;;;30.13;28.33;;;27.40;99.90;;;;;;5040094;28;20055;-73
2022/08/17 08:30:09;;;;;;;31.47;29.37;;;27.50;99.90;;;;;;5038319;28;20405;-75
2022/08/17 08:32:45;;;;;;;30.40;28.70;;;28.00;99.90;;;;;;5030965;28;20404;-75
2022/08/17 08:35:40;;;;;;;30.45;28.45;;;28.30;99.90;;;;;;5040308;28;20344;-75
2022/08/17 08:38:22;;;;;;;31.20;29.05;;;28.30;99.90;;;;;;5013813;28;20052;-73
2022/08/17 08:41:10;;;;;;;30.77;28.88;;;28.40;99.90;;;;;;5041310;28;20563;-75
2022/08/17 08:43:50;;;;;;;30.60;28.80;;;28.40;99.90;;;;;;5027041;28;21068;-74
2022/08/17 08:46:35;;;;;;;30.38;28.55;;;28.50;99.90;;;;;;5066458;22;20481;-74
2022/08/17 08:49:01;;;;;;;29.73;27.92;;;28.70;99.90;;;;;;5036840;28;20044;-76
2022/08/17 08:51:54;;;;;;;29.73;28.02;;;28.50;99.90;;;;;;5035625;28;20044;-75
2022/08/17 08:54:27;;;;;;;29.27;27.48;;;28.20;99.90;;;;;;5043076;28;20040;-75
2022/08/17 08:57:04;;;;;;;29.90;28.10;;;28.10;99.90;;;;;;5055482;28;20041;-75
2022/08/17 09:00:13;;;;;;;30.63;28.60;;;28.00;99.90;;;;;;5044437;28;20565;-75
2022/08/17 09:03:07;;;;;;;31.50;29.15;;;28.30;99.90;;;;;;5054647;28;20453;-75
2022/08/17 09:05:46;;;;;;;31.58;29.73;;;27.40;99.90;;;;;;5018667;28;20040;-75
2022/08/17 09:08:22;;;;;;;30.83;28.92;;;27.50;99.90;;;;;;5058427;28;20493;-75
2022/08/17 09:10:55;;;;;;;;;;;28.20;99.90;;;;;;5056277;28;20367;-77
2022/08/17 09:13:40;;;;;;;30.38;28.65;;;28.60;99.90;;;;;;5042304;28;19928;-75
2022/08/17 09:16:16;;;;;;;31.80;29.90;;;28.40;99.90;;;;;;5044265;28;20045;-74
2022/08/17 09:18:50;;;;;;;32.08;30.17;;;28.20;99.90;;;;;;5081006;28;20025;-73
2022/08/17 09:21:51;;;;;;;31.45;29.55;;;28.40;99.90;;;;;;5078684;28;20261;-74
2022/08/17 09:24:32;;;;;;;29.40;27.70;;;28.60;99.90;;;;;;5068053;28;20377;-75
2022/08/17 09:27:03;;;;;;;30.23;28.23;;;28.90;99.90;;;;;;5031275;28;20067;-75
2022/08/17 09:29:35;;;;;;;29.30;27.60;;;29.10;99.90;;;;;;5041039;28;20040;-75
2022/08/17 09:32:31;;;;;;;30.08;28.38;;;28.90;99.90;;;;;;5062573;28;20072;-76
2022/08/17 09:35:05;;;;;;;30.02;28.20;;;28.70;99.90;;;;;;5047633;28;20277;-75
2022/08/17 09:37:50;;;;;;;30.17;28.40;;;28.50;99.90;;;;;;5043681;28;20055;-75
2022/08/17 09:40:30;;;;;;;31.38;29.45;;;28.20;99.90;;;;;;5051200;28;20051;-75
2022/08/17 09:43:23;;;;;;;31.00;28.85;;;28.10;99.90;;;;;;5046573;28;20334;-76
2022/08/17 09:46:02;;;;;;;30.90;28.77;;;28.40;99.90;;;;;;5049670;28;20112;-75
2022/08/17 09:48:36;;;;;;;30.00;28.20;;;28.20;99.90;;;;;;5057924;28;20040;-76
2022/08/17 09:51:12;;;;;;;30.50;28.70;;;27.80;99.90;;;;;;5025649;28;20109;-75
2022/08/17 09:53:40;;;;;;;30.65;28.83;;;27.80;99.90;;;;;;5044137;28;20634;-76
2022/08/17 09:56:28;;;;;;;29.27;27.45;;;27.80;99.90;;;;;;5041715;28;20055;-77
2022/08/17 09:59:20;;;;;;;29.67;27.77;;;27.90;99.90;;;;;;5034058;28;20080;-79
2022/08/17 10:02:23;;;;;;;29.17;27.27;;;27.70;99.90;;;;;;5060332;28;20052;-78
2022/08/17 10:04:50;;;;;;;29.25;27.25;;;27.50;99.90;;;;;;5069505;28;20105;-79
2022/08/17 10:07:40;;;;;;;30.38;28.20;;;27.50;99.90;;;;;;5048488;28;20218;-80
2022/08/17 10:10:33;;;;;;;29.48;27.48;;;27.20;99.90;;;;;;5070294;28;20045;-79
2022/08/17 10:13:18;;;;;;;28.70;26.90;;;27.30;99.90;;;;;;5063094;28;20048;-80
2022/08/17 10:16:13;;;;;;;29.20;27.25;;;27.40;99.90;;;;;;5062463;28;20151;-78
2022/08/17 10:19:19;;;;;;;30.45;28.33;;;27.60;99.90;;;;;;5056047;28;20059;-80
2022/08/17 10:27:55;;;;;;;30.35;28.35;;;27.70;99.90;;;;;;5062545;28;20493;-77
2022/08/17 10:30:26;;;;;;;30.23;28.02;;;27.80;99.90;;;;;;5063968;28;20054;-76
2022/08/17 10:33:14;;;;;;;29.58;27.75;;;28.10;99.90;;;;;;5039180;28;20040;-78
2022/08/17 10:36:11;;;;;;;30.20;28.13;;;28.20;99.90;;;;;;5044040;28;20040;-77
2022/08/17 10:39:00;;;;;;;30.35;28.45;;;28.30;99.90;;;;;;5038204;28;20060;-76
2022/08/17 10:41:39;;;;;;;30.25;28.20;;;28.30;99.90;;;;;;5044018;28;20347;-77
2022/08/17 10:44:34;;;;;;;31.27;29.05;;;28.30;99.90;;;;;;5030385;28;20059;-76
2022/08/17 10:47:11;;;;;;;30.52;28.73;;;28.20;99.90;;;;;;5060150;28;20045;-77
2022/08/17 10:49:46;;;;;;;31.17;29.08;;;28.20;99.90;;;;;;5063189;28;20473;-77
2022/08/17 10:52:20;;;;;;;30.88;28.98;;;28.30;99.90;;;;;;5041193;28;20459;-77
2022/08/17 10:55:05;;;;;;;30.05;28.15;;;28.30;99.90;;;;;;5022918;28;21154;-77
2022/08/17 10:58:00;;;;;;;30.27;28.45;;;28.20;99.90;;;;;;5029152;28;20060;-76
2022/08/17 11:00:39;;;;;;;30.17;27.90;;;28.00;99.90;;;;;;4999209;28;20052;-76
2022/08/17 11:03:20;;;;;;;30.30;28.30;;;28.10;99.90;;;;;;5059961;28;20090;-76
2022/08/17 11:06:18;;;;;;;29.95;28.05;;;28.30;99.90;;;;;;5051805;28;20056;-77
2022/08/17 11:09:22;;;;;;;31.10;28.55;;;28.30;99.90;;;;;;5059706;28;20452;-76
2022/08/17 11:12:22;;;;;;;30.52;28.52;;;28.30;99.90;;;;;;5062696;28;20114;-78
2022/08/17 11:15:02;;;;;;;30.80;28.88;;;28.50;99.90;;;;;;5047872;28;20041;-78
2022/08/17 11:17:29;;;;;;;31.40;29.50;;;28.50;99.90;;;;;;5043974;28;20135;-76
2022/08/17 11:20:21;;;;;;;30.77;28.98;;;28.70;99.90;;;;;;5065822;28;20292;-77
2022/08/17 11:23:09;;;;;;;30.40;28.45;;;29.00;99.90;;;;;;5046810;28;21013;-77
2022/08/17 11:25:45;;;;;;;30.08;28.00;;;29.30;99.90;;;;;;5049878;28;20119;-77
2022/08/17 11:28:23;;;;;;;30.27;28.50;;;29.50;99.90;;;;;;5044116;28;20274;-78
2022/08/17 11:30:55;;;;;;;30.45;28.40;;;29.60;99.90;;;;;;5045602;28;20048;-77
2022/08/17 11:33:33;;;;;;;29.60;27.60;;;29.30;99.90;;;;;;5062075;28;20052;-75
2022/08/17 11:36:29;;;;;;;31.08;29.02;;;28.90;99.90;;;;;;5045143;28;20391;-77
2022/08/17 11:39:14;;;;;;;32.38;29.98;;;28.80;99.90;;;;;;5058402;28;20453;-76
2022/08/17 11:41:53;;;;;;;30.33;28.40;;;28.70;99.90;;;;;;5038667;28;20105;-76
2022/08/17 11:44:45;;;;;;;31.38;29.38;;;28.60;99.90;;;;;;5040261;28;20155;-77
2022/08/17 11:53:52;;;;;;;33.35;31.17;;;28.00;99.90;;;;;;5044729;28;20384;-76
2022/08/17 11:56:44;;;;;;;32.85;30.73;;;27.90;99.90;;;;;;5040729;28;20265;-77
2022/08/17 11:59:34;;;;;;;32.72;30.80;;;27.90;99.90;;;;;;5061529;28;20052;-77
2022/08/17 12:02:03;;;;;;;31.85;29.95;;;27.90;99.90;;;;;;5054751;28;20044;-77
2022/08/17 12:04:33;;;;;;;32.38;30.30;;;27.80;99.90;;;;;;5038491;28;20048;-75
2022/08/17 12:07:18;;;;;;;33.03;30.77;;;27.80;99.90;;;;;;5056686;28;20059;-76
2022/08/17 12:09:49;;;;;;;34.25;32.13;;;27.70;99.90;;;;;;5037647;28;20067;-76
2022/08/17 12:12:21;;;;;;;32.80;30.70;;;27.80;99.90;;;;;;5043293;28;20336;-76
2022/08/17 12:14:52;;;;;;;33.10;30.90;;;27.80;99.90;;;;;;5053046;28;20147;-76
2022/08/17 12:17:38;;;;;;;33.83;31.80;;;27.80;99.90;;;;;;5023466;28;20048;-76
2022/08/17 12:20:25;;;;;;;33.25;31.15;;;27.70;99.90;;;;;;5061047;28;20052;-76
2022/08/17 12:23:19;;;;;;;34.25;32.00;;;27.80;99.90;;;;;;5042670;28;20267;-77
2022/08/17 12:25:58;;;;;;;31.02;29.08;;;27.80;99.90;;;;;;5061355;28;20044;-77
2022/08/17 12:28:34;;;;;;;30.63;28.70;;;27.70;99.90;;;;;;5023123;28;20056;-77
2022/08/17 12:31:10;;;;;;;29.85;27.63;;;27.60;99.90;;;;;;5041691;28;20072;-76
2022/08/17 12:33:42;;;;;;;31.05;28.80;;;27.60;99.90;;;;;;5024248;28;20689;-76
2022/08/17 12:36:13;;;;;;;29.55;27.65;;;27.60;99.90;;;;;;5045235;28;20422;-76
2022/08/17 12:38:50;;;;;;;31.30;28.95;;;27.60;99.90;;;;;;5038689;28;20040;-77
2022/08/17 12:41:43;;;;;;;30.10;28.08;;;27.50;99.90;;;;;;5057561;28;20388;-76
2022/08/17 12:44:10;;;;;;;30.30;28.08;;;27.50;99.90;;;;;;5051058;28;20524;-77
2022/08/17 12:46:52;;;;;;;31.70;29.42;;;27.50;99.90;;;;;;5041859;28;20063;-77
2022/08/17 12:49:25;;;;;;;32.65;30.45;;;27.40;99.90;;;;;;5030277;28;20155;-78
2022/08/17 12:52:07;;;;;;;32.70;30.50;;;27.30;99.90;;;;;;5038988;28;20056;-78
2022/08/17 12:54:39;;;;;;;31.25;29.15;;;27.40;99.90;;;;;;5035979;28;20641;-78
2022/08/17 12:57:15;;;;;;;31.25;29.25;;;27.30;99.90;;;;;;5049981;28;20386;-78
2022/08/17 12:59:47;;;;;;;31.48;29.52;;;27.30;99.90;;;;;;5048029;28;20036;-78
2022/08/17 13:02:51;;;;;;;31.08;29.15;;;27.20;99.90;;;;;;5041244;28;20055;-78
2022/08/17 13:05:23;;;;;;;32.30;30.30;;;27.20;99.90;;;;;;5016472;28;20517;-78
2022/08/17 13:07:52;;;;;;;32.70;30.70;;;27.30;99.90;;;;;;5061673;28;20044;-78
2022/08/17 13:10:30;;;;;;;32.55;30.55;;;27.20;99.90;;;;;;5072198;28;20068;-78
2022/08/17 13:13:16;;;;;;;30.85;28.67;;;27.10;99.90;;;;;;5041998;28;20051;-78
2022/08/17 13:15:52;;;;;;;31.20;29.17;;;27.00;99.90;;;;;;5050833;28;20043;-76
2022/08/17 13:18:57;;;;;;;31.35;28.83;;;26.90;99.90;;;;;;5049563;28;20040;-77
2022/08/17 13:21:29;;;;;;;31.85;29.80;;;26.90;99.90;;;;;;5042153;28;20040;-76
2022/08/17 13:24:06;;;;;;;33.25;30.38;;;26.90;99.90;;;;;;5064005;28;20056;-76
2022/08/17 13:26:36;;;;;;;33.58;31.45;;;26.80;99.90;;;;;;5038242;28;20044;-77
2022/08/17 13:29:20;;;;;;;33.67;31.55;;;26.60;99.90;;;;;;5033684;28;20052;-77
2022/08/17 13:31:47;;;;;;;34.75;32.63;;;26.30;99.90;;;;;;5043967;28;20047;-78
2022/08/17 13:34:22;;;;;;;;;;;26.00;99.90;;;;;;5027879;28;20123;-78
2022/08/17 13:37:04;;;;;;;35.40;33.00;;;25.70;99.90;;;;;;5065613;28;19923;-78
2022/08/17 13:39:40;;;;;;;36.22;33.83;;;25.40;99.90;;;;;;5042605;28;20466;-77
2022/08/17 13:42:28;;;;;;;37.03;34.42;;;25.20;99.90;;;;;;5050689;28;20433;-76
2022/08/17 13:44:55;;;;;;;35.70;33.33;;;25.00;99.90;;;;;;5050007;28;20368;-77
2022/08/17 13:47:24;;;;;;;35.67;33.03;;;25.00;99.90;;;;;;5069699;28;20060;-78
2022/08/17 13:49:51;;;;;;;37.95;35.58;;;25.00;99.90;;;;;;5070817;28;20140;-78
2022/08/17 13:52:39;;;;;;;37.58;35.05;;;24.90;99.90;;;;;;5043316;28;20041;-77
2022/08/17 13:55:19;;;;;;;39.60;36.58;;;24.90;99.90;;;;;;5037223;28;20048;-77
2022/08/17 13:57:50;;;;;;;41.67;39.08;;;24.80;99.90;;;;;;5045022;28;20536;-77
2022/08/17 14:00:35;;;;;;;41.55;39.03;;;24.80;99.90;;;;;;5065508;28;20040;-77
2022/08/17 14:03:03;;;;;;;40.03;37.60;;;24.80;99.90;;;;;;5068530;28;20051;-78
2022/08/17 14:05:31;;;;;;;39.47;37.17;;;24.90;99.90;;;;;;5065329;28;20044;-77
2022/08/17 14:08:02;;;;;;;41.33;38.83;;;24.90;99.90;;;;;;5049942;28;20490;-77
2022/08/17 14:10:35;;;;;;;39.35;37.13;;;24.90;99.90;;;;;;5069918;28;20062;-77